createdAt,value
2019-01-29T00:00:08.179Z,2.45
2019-01-29T00:01:08.165Z,2.45
2019-01-29T00:02:08.148Z,2.53
2019-01-29T00:03:08.139Z,2.49
2019-01-29T00:04:08.146Z,2.49
2019-01-29T00:05:08.138Z,2.55
2019-01-29T00:06:08.903Z,2.51
2019-01-29T00:07:08.120Z,2.49
2019-01-29T00:08:08.082Z,2.45
2019-01-29T00:09:08.077Z,2.48
2019-01-29T00:10:08.068Z,2.49
2019-01-29T00:11:08.057Z,2.49
2019-01-29T00:12:08.087Z,2.45
2019-01-29T00:13:08.028Z,2.40
2019-01-29T00:14:08.021Z,2.52
2019-01-29T00:15:08.010Z,2.48
2019-01-29T00:16:07.994Z,2.51
2019-01-29T00:17:07.984Z,2.45
2019-01-29T00:18:08.022Z,2.45
2019-01-29T00:19:07.966Z,2.46
2019-01-29T00:20:08.045Z,2.49
2019-01-29T00:21:07.949Z,2.45
2019-01-29T00:22:07.976Z,2.46
2019-01-29T00:23:07.935Z,2.46
2019-01-29T00:24:07.911Z,2.53
2019-01-29T00:25:07.903Z,2.46
2019-01-29T00:26:07.891Z,2.48
2019-01-29T00:27:07.881Z,2.51
2019-01-29T00:28:07.879Z,2.45
2019-01-29T00:29:07.861Z,2.40
2019-01-29T00:30:07.840Z,2.49
2019-01-29T00:31:07.831Z,2.55
2019-01-29T00:32:07.825Z,2.45
2019-01-29T00:33:07.844Z,2.52
2019-01-29T00:34:07.801Z,2.48
2019-01-29T00:35:07.789Z,2.44
2019-01-29T00:36:07.779Z,2.37
2019-01-29T00:37:07.767Z,2.40
2019-01-29T00:38:07.758Z,2.38
2019-01-29T00:39:07.773Z,2.41
2019-01-29T00:40:07.732Z,2.41
2019-01-29T00:41:07.724Z,2.46
2019-01-29T00:42:07.709Z,2.41
2019-01-29T00:43:07.698Z,2.44
2019-01-29T00:44:07.707Z,2.44
2019-01-29T00:45:07.681Z,2.35
2019-01-29T00:46:07.670Z,2.44
2019-01-29T00:47:07.657Z,2.44
2019-01-29T00:48:07.647Z,2.48
2019-01-29T00:49:07.651Z,2.46
2019-01-29T00:50:07.671Z,2.46
2019-01-29T00:51:07.621Z,2.45
2019-01-29T00:52:07.597Z,2.52
2019-01-29T00:53:07.588Z,2.48
2019-01-29T00:54:07.577Z,2.48
2019-01-29T00:55:07.615Z,2.48
2019-01-29T00:56:07.559Z,2.48
2019-01-29T00:57:07.546Z,2.48
2019-01-29T00:58:07.533Z,2.48
2019-01-29T00:59:07.525Z,2.48
2019-01-29T01:00:07.542Z,2.48
2019-01-29T01:01:07.508Z,2.51
2019-01-29T01:02:07.494Z,2.46
2019-01-29T01:03:07.485Z,2.51
2019-01-29T01:04:07.504Z,2.53
2019-01-29T01:05:07.459Z,2.48
2019-01-29T01:06:07.459Z,2.45
2019-01-29T01:07:07.440Z,2.41
2019-01-29T01:08:07.432Z,2.51
2019-01-29T01:09:07.417Z,2.40
2019-01-29T01:10:07.409Z,2.40
2019-01-29T01:11:07.439Z,2.46
2019-01-29T01:12:07.377Z,2.40
2019-01-29T01:13:07.374Z,2.40
2019-01-29T01:14:07.363Z,2.40
2019-01-29T01:15:07.351Z,2.33
2019-01-29T01:16:07.385Z,2.34
2019-01-29T01:17:07.393Z,2.22
2019-01-29T01:18:07.326Z,2.34
2019-01-29T01:19:07.306Z,2.23
2019-01-29T01:20:07.294Z,2.20
2019-01-29T01:21:07.283Z,2.19
2019-01-29T01:22:07.276Z,2.15
2019-01-29T01:23:07.298Z,2.10
2019-01-29T01:24:07.246Z,2.09
2019-01-29T01:25:07.241Z,2.04
2019-01-29T01:26:07.231Z,1.91
2019-01-29T01:27:07.225Z,1.85
2019-01-29T01:28:07.206Z,1.76
2019-01-29T01:29:07.244Z,1.71
2019-01-29T01:30:07.190Z,1.71
2019-01-29T01:31:07.182Z,1.65
2019-01-29T01:32:07.165Z,1.62
2019-01-29T01:33:07.159Z,1.68
2019-01-29T01:34:07.146Z,1.68
2019-01-29T01:35:07.125Z,1.71
2019-01-29T01:36:07.123Z,1.64
2019-01-29T01:37:07.113Z,1.69
2019-01-29T01:38:07.099Z,1.69
2019-01-29T01:39:07.132Z,1.69
2019-01-29T01:40:07.070Z,1.65
2019-01-29T01:41:07.069Z,1.68
2019-01-29T01:42:07.059Z,1.62
2019-01-29T01:43:07.044Z,1.68
2019-01-29T01:44:07.098Z,1.73
2019-01-29T01:45:07.016Z,1.71
2019-01-29T01:46:07.008Z,1.72
2019-01-29T01:47:07.798Z,1.65
2019-01-29T01:48:06.981Z,1.65
2019-01-29T01:49:06.982Z,1.69
2019-01-29T01:50:06.970Z,1.72
2019-01-29T01:51:06.955Z,1.69
2019-01-29T01:52:06.940Z,1.62
2019-01-29T01:53:06.928Z,1.72
2019-01-29T01:54:06.924Z,1.72
2019-01-29T01:55:06.954Z,1.72
2019-01-29T01:56:06.896Z,1.62
2019-01-29T01:57:06.890Z,1.73
2019-01-29T01:58:06.872Z,1.76
2019-01-29T01:59:06.868Z,1.73
2019-01-29T02:00:06.902Z,1.69
2019-01-29T02:01:06.887Z,1.73
2019-01-29T02:02:06.828Z,1.79
2019-01-29T02:03:06.816Z,1.69
2019-01-29T02:04:06.806Z,1.73
2019-01-29T02:05:06.795Z,1.80
2019-01-29T02:06:06.842Z,1.72
2019-01-29T02:07:07.272Z,1.76
2019-01-29T02:08:06.769Z,1.71
2019-01-29T02:09:06.791Z,1.72
2019-01-29T02:10:06.744Z,1.75
2019-01-29T02:11:06.734Z,1.78
2019-01-29T02:12:06.735Z,1.75
2019-01-29T02:13:06.710Z,1.82
2019-01-29T02:14:06.697Z,1.78
2019-01-29T02:15:06.688Z,1.78
2019-01-29T02:16:06.676Z,1.76
2019-01-29T02:17:06.710Z,1.80
2019-01-29T02:18:06.659Z,1.89
2019-01-29T02:19:06.641Z,1.73
2019-01-29T02:20:06.632Z,1.79
2019-01-29T02:21:06.622Z,1.85
2019-01-29T02:22:06.614Z,1.80
2019-01-29T02:23:08.125Z,1.75
2019-01-29T02:24:06.590Z,1.80
2019-01-29T02:25:06.580Z,1.83
2019-01-29T02:26:06.567Z,1.89
2019-01-29T02:27:06.552Z,1.87
2019-01-29T02:28:06.579Z,1.73
2019-01-29T02:29:06.535Z,1.76
2019-01-29T02:30:06.518Z,1.78
2019-01-29T02:31:06.513Z,1.75
2019-01-29T02:32:06.496Z,1.79
2019-01-29T02:33:07.309Z,1.76
2019-01-29T02:34:06.508Z,1.82
2019-01-29T02:35:06.488Z,1.75
2019-01-29T02:36:06.456Z,1.76
2019-01-29T02:37:06.448Z,1.82
2019-01-29T02:38:06.437Z,1.71
2019-01-29T02:39:06.439Z,1.73
2019-01-29T02:40:06.408Z,1.76
2019-01-29T02:41:06.399Z,1.76
2019-01-29T02:42:06.390Z,1.76
2019-01-29T02:43:06.377Z,1.61
2019-01-29T02:44:06.380Z,1.75
2019-01-29T02:45:06.388Z,1.76
2019-01-29T02:46:06.350Z,1.76
2019-01-29T02:47:06.335Z,1.69
2019-01-29T02:48:06.325Z,1.69
2019-01-29T02:49:06.319Z,1.76
2019-01-29T02:50:06.312Z,1.68
2019-01-29T02:51:06.322Z,1.69
2019-01-29T02:52:06.278Z,1.72
2019-01-29T02:53:06.375Z,1.69
2019-01-29T02:54:06.254Z,1.72
2019-01-29T02:55:06.255Z,1.69
2019-01-29T02:56:06.239Z,1.69
2019-01-29T02:57:06.220Z,1.65
2019-01-29T02:58:06.209Z,1.72
2019-01-29T02:59:06.199Z,1.69
2019-01-29T03:00:06.240Z,1.64
2019-01-29T03:01:06.183Z,1.64
2019-01-29T03:02:06.189Z,1.54
2019-01-29T03:03:06.159Z,1.52
2019-01-29T03:04:06.152Z,1.52
2019-01-29T03:05:06.161Z,1.47
2019-01-29T03:06:06.127Z,1.47
2019-01-29T03:07:06.114Z,1.47
2019-01-29T03:08:06.111Z,1.44
2019-01-29T03:09:06.094Z,1.47
2019-01-29T03:10:06.102Z,1.44
2019-01-29T03:11:06.074Z,1.44
2019-01-29T03:12:06.056Z,1.37
2019-01-29T03:13:06.050Z,1.40
2019-01-29T03:14:06.034Z,1.37
2019-01-29T03:15:06.029Z,1.32
2019-01-29T03:16:06.048Z,1.44
2019-01-29T03:17:06.050Z,1.32
2019-01-29T03:18:06.000Z,1.34
2019-01-29T03:19:06.944Z,1.32
2019-01-29T03:20:05.966Z,1.22
2019-01-29T03:21:06.038Z,1.19
2019-01-29T03:22:05.965Z,1.18
2019-01-29T03:23:05.942Z,1.16
2019-01-29T03:24:05.924Z,1.19
2019-01-29T03:25:05.927Z,1.19
2019-01-29T03:26:05.904Z,1.04
2019-01-29T03:27:05.941Z,0.97
2019-01-29T03:28:05.883Z,1.03
2019-01-29T03:29:05.875Z,1.04
2019-01-29T03:30:05.864Z,1.01
2019-01-29T03:31:05.859Z,1.06
2019-01-29T03:32:06.003Z,0.96
2019-01-29T03:33:05.847Z,1.04
2019-01-29T03:34:05.813Z,1.00
2019-01-29T03:35:05.815Z,1.04
2019-01-29T03:36:05.794Z,0.92
2019-01-29T03:37:05.824Z,0.94
2019-01-29T03:38:05.777Z,0.94
2019-01-29T03:39:05.757Z,0.89
2019-01-29T03:40:05.747Z,0.88
2019-01-29T03:41:05.740Z,0.88
2019-01-29T03:42:05.759Z,0.97
2019-01-29T03:43:05.720Z,0.92
2019-01-29T03:44:05.707Z,0.90
2019-01-29T03:45:05.690Z,0.88
2019-01-29T03:46:05.680Z,0.86
2019-01-29T03:47:05.673Z,0.90
2019-01-29T03:48:05.730Z,0.78
2019-01-29T03:49:05.648Z,0.79
2019-01-29T03:50:05.636Z,0.82
2019-01-29T03:51:05.629Z,0.80
2019-01-29T03:52:05.614Z,0.82
2019-01-29T03:53:05.606Z,0.85
2019-01-29T03:54:05.611Z,0.83
2019-01-29T03:55:05.588Z,0.82
2019-01-29T03:56:05.574Z,0.82
2019-01-29T03:57:05.563Z,0.82
2019-01-29T03:58:05.620Z,0.85
2019-01-29T03:59:05.545Z,0.82
2019-01-29T04:00:05.526Z,0.78
2019-01-29T04:01:05.520Z,0.83
2019-01-29T04:02:05.507Z,0.85
2019-01-29T04:03:05.499Z,0.83
2019-01-29T04:04:05.510Z,0.80
2019-01-29T04:05:06.323Z,0.86
2019-01-29T04:06:05.464Z,0.88
2019-01-29T04:07:05.456Z,0.92
2019-01-29T04:08:05.450Z,0.97
2019-01-29T04:09:05.431Z,0.97
2019-01-29T04:10:05.426Z,0.88
2019-01-29T04:11:05.406Z,0.79
2019-01-29T04:12:05.406Z,0.82
2019-01-29T04:13:05.382Z,0.89
2019-01-29T04:14:05.370Z,0.85
2019-01-29T04:15:05.368Z,0.83
2019-01-29T04:16:05.364Z,0.75
2019-01-29T04:17:05.386Z,0.79
2019-01-29T04:18:05.338Z,0.79
2019-01-29T04:19:05.320Z,0.75
2019-01-29T04:20:05.312Z,0.78
2019-01-29T04:21:05.302Z,0.76
2019-01-29T04:22:05.354Z,0.68
2019-01-29T04:23:05.285Z,0.75
2019-01-29T04:24:05.267Z,0.80
2019-01-29T04:25:05.254Z,0.75
2019-01-29T04:26:05.243Z,0.78
2019-01-29T04:27:05.237Z,0.72
2019-01-29T04:28:05.267Z,0.78
2019-01-29T04:29:05.211Z,0.76
2019-01-29T04:30:05.193Z,0.78
2019-01-29T04:31:05.182Z,0.76
2019-01-29T04:32:05.170Z,0.79
2019-01-29T04:33:05.176Z,0.71
2019-01-29T04:34:05.165Z,0.76
2019-01-29T04:35:05.140Z,0.71
2019-01-29T04:36:05.147Z,0.78
2019-01-29T04:37:05.123Z,0.68
2019-01-29T04:38:05.111Z,0.68
2019-01-29T04:39:05.124Z,0.64
2019-01-29T04:40:05.084Z,0.65
2019-01-29T04:41:05.075Z,0.68
2019-01-29T04:42:05.062Z,0.76
2019-01-29T04:43:05.058Z,0.75
2019-01-29T04:44:05.050Z,0.71
2019-01-29T04:45:05.079Z,0.65
2019-01-29T04:46:05.024Z,0.71
2019-01-29T04:47:05.011Z,0.71
2019-01-29T04:48:04.996Z,0.67
2019-01-29T04:49:05.009Z,0.70
2019-01-29T04:50:05.003Z,0.76
2019-01-29T04:51:05.379Z,0.68
2019-01-29T04:52:04.962Z,0.72
2019-01-29T04:53:04.939Z,0.65
2019-01-29T04:54:04.940Z,0.65
2019-01-29T04:55:05.797Z,0.58
2019-01-29T04:56:04.950Z,0.61
2019-01-29T04:57:04.904Z,0.62
2019-01-29T04:58:04.895Z,0.70
2019-01-29T04:59:04.876Z,0.70
2019-01-29T05:00:04.864Z,0.68
2019-01-29T05:01:04.860Z,0.76
2019-01-29T05:02:04.875Z,0.62
2019-01-29T05:03:04.832Z,0.62
2019-01-29T05:04:04.826Z,0.60
2019-01-29T05:05:04.811Z,0.61
2019-01-29T05:06:04.804Z,0.57
2019-01-29T05:07:04.860Z,0.68
2019-01-29T05:08:04.777Z,0.58
2019-01-29T05:09:04.765Z,0.64
2019-01-29T05:10:04.762Z,0.51
2019-01-29T05:11:04.749Z,0.51
2019-01-29T05:12:04.732Z,0.57
2019-01-29T05:13:04.741Z,0.57
2019-01-29T05:14:04.710Z,0.51
2019-01-29T05:15:04.701Z,0.51
2019-01-29T05:16:04.697Z,0.51
2019-01-29T05:17:04.677Z,0.58
2019-01-29T05:18:04.707Z,0.52
2019-01-29T05:19:04.661Z,0.57
2019-01-29T05:20:04.646Z,0.60
2019-01-29T05:21:04.634Z,0.52
2019-01-29T05:22:04.623Z,0.49
2019-01-29T05:23:04.612Z,0.53
2019-01-29T05:24:07.087Z,0.58
2019-01-29T05:25:04.592Z,0.58
2019-01-29T05:26:04.582Z,0.51
2019-01-29T05:27:04.578Z,0.61
2019-01-29T05:28:04.563Z,0.49
2019-01-29T05:29:04.582Z,0.45
2019-01-29T05:30:04.541Z,0.46
2019-01-29T05:31:04.529Z,0.42
2019-01-29T05:32:04.532Z,0.42
2019-01-29T05:33:04.503Z,0.43
2019-01-29T05:34:04.549Z,0.43
2019-01-29T05:35:04.531Z,0.43
2019-01-29T05:36:05.333Z,0.34
2019-01-29T05:37:04.517Z,0.33
2019-01-29T05:38:04.457Z,0.31
2019-01-29T05:39:04.622Z,0.23
2019-01-29T05:40:04.543Z,0.21
2019-01-29T05:41:04.431Z,0.27
2019-01-29T05:42:04.412Z,0.16
2019-01-29T05:43:04.395Z,0.23
2019-01-29T05:44:04.403Z,0.18
2019-01-29T05:45:04.377Z,0.20
2019-01-29T05:46:04.374Z,0.09
2019-01-29T05:47:04.359Z,0.13
2019-01-29T05:48:04.347Z,0.07
2019-01-29T05:49:04.343Z,0.06
2019-01-29T05:50:04.322Z,0.05
2019-01-29T05:51:04.328Z,0.03
2019-01-29T05:52:04.301Z,0.03
2019-01-29T05:53:04.306Z,0.03
2019-01-29T05:54:04.277Z,-0.11
2019-01-29T05:55:04.271Z,-0.06
2019-01-29T05:56:04.296Z,-0.11
2019-01-29T05:57:04.251Z,-0.09
2019-01-29T05:58:04.238Z,-0.09
2019-01-29T05:59:04.228Z,-0.15
2019-01-29T06:00:04.216Z,-0.16
2019-01-29T06:01:04.253Z,-0.09
2019-01-29T06:02:04.188Z,-0.18
2019-01-29T06:03:04.182Z,-0.22
2019-01-29T06:04:04.217Z,-0.13
2019-01-29T06:05:04.161Z,-0.13
2019-01-29T06:06:04.185Z,-0.24
2019-01-29T06:07:04.148Z,-0.23
2019-01-29T06:08:05.228Z,-0.16
2019-01-29T06:09:04.114Z,-0.23
2019-01-29T06:10:04.107Z,-0.18
2019-01-29T06:11:04.097Z,-0.22
2019-01-29T06:12:04.097Z,-0.22
2019-01-29T06:13:04.070Z,-0.22
2019-01-29T06:14:04.110Z,-0.26
2019-01-29T06:15:04.048Z,-0.24
2019-01-29T06:16:04.045Z,-0.30
2019-01-29T06:17:04.078Z,-0.33
2019-01-29T06:18:04.015Z,-0.29
2019-01-29T06:19:04.037Z,-0.36
2019-01-29T06:20:03.994Z,-0.29
2019-01-29T06:21:03.983Z,-0.27
2019-01-29T06:22:04.022Z,-0.31
2019-01-29T06:23:03.963Z,-0.29
2019-01-29T06:24:03.952Z,-0.33
2019-01-29T06:25:03.945Z,-0.31
2019-01-29T06:26:03.935Z,-0.34
2019-01-29T06:27:03.969Z,-0.26
2019-01-29T06:28:03.906Z,-0.44
2019-01-29T06:29:03.901Z,-0.31
2019-01-29T06:30:03.895Z,-0.37
2019-01-29T06:31:03.878Z,-0.24
2019-01-29T06:32:03.877Z,-0.37
2019-01-29T06:33:03.884Z,-0.30
2019-01-29T06:34:03.842Z,-0.34
2019-01-29T06:35:03.837Z,-0.30
2019-01-29T06:36:03.820Z,-0.31
2019-01-29T06:37:03.812Z,-0.30
2019-01-29T06:38:03.833Z,-0.33
2019-01-29T06:39:03.786Z,-0.31
2019-01-29T06:40:03.777Z,-0.45
2019-01-29T06:41:03.829Z,-0.42
2019-01-29T06:42:03.762Z,-0.39
2019-01-29T06:43:03.747Z,-0.41
2019-01-29T06:44:03.733Z,-0.41
2019-01-29T06:45:03.720Z,-0.44
2019-01-29T06:46:03.710Z,-0.37
2019-01-29T06:47:03.773Z,-0.41
2019-01-29T06:48:03.689Z,-0.41
2019-01-29T06:49:03.686Z,-0.42
2019-01-29T06:50:03.669Z,-0.42
2019-01-29T06:51:03.661Z,-0.41
2019-01-29T06:52:03.649Z,-0.50
2019-01-29T06:53:03.644Z,-0.54
2019-01-29T06:54:03.641Z,-0.48
2019-01-29T06:55:03.616Z,-0.39
2019-01-29T06:56:03.605Z,-0.42
2019-01-29T06:57:03.592Z,-0.41
2019-01-29T06:58:03.630Z,-0.39
2019-01-29T06:59:03.618Z,-0.44
2019-01-29T07:00:03.559Z,-0.45
2019-01-29T07:01:03.551Z,-0.50
2019-01-29T07:02:03.535Z,-0.36
2019-01-29T07:03:03.524Z,-0.39
2019-01-29T07:04:03.519Z,-0.26
2019-01-29T07:05:03.518Z,-0.31
2019-01-29T07:06:03.493Z,-0.33
2019-01-29T07:07:03.489Z,-0.27
2019-01-29T07:08:03.477Z,-0.27
2019-01-29T07:09:03.459Z,-0.23
2019-01-29T07:10:03.464Z,-0.27
2019-01-29T07:11:03.447Z,-0.19
2019-01-29T07:12:03.431Z,-0.22
2019-01-29T07:13:03.417Z,-0.24
2019-01-29T07:14:03.407Z,-0.24
2019-01-29T07:15:03.411Z,-0.23
2019-01-29T07:16:03.388Z,-0.23
2019-01-29T07:17:03.375Z,-0.26
2019-01-29T07:18:03.374Z,-0.15
2019-01-29T07:19:03.355Z,-0.15
2019-01-29T07:20:03.354Z,-0.13
2019-01-29T07:21:03.335Z,-0.16
2019-01-29T07:22:03.334Z,-0.12
2019-01-29T07:23:03.311Z,-0.06
2019-01-29T07:24:03.299Z,-0.08
2019-01-29T07:25:03.299Z,-0.09
2019-01-29T07:26:03.291Z,-0.04
2019-01-29T07:27:03.269Z,-0.06
2019-01-29T07:28:03.255Z,0.06
2019-01-29T07:29:03.247Z,-0.01
2019-01-29T07:30:03.236Z,0.00
2019-01-29T07:31:03.338Z,0.03
2019-01-29T07:32:03.220Z,-0.01
2019-01-29T07:33:03.204Z,-0.01
2019-01-29T07:34:03.190Z,0.06
2019-01-29T07:35:03.182Z,0.05
2019-01-29T07:36:03.167Z,0.03
2019-01-29T07:37:03.164Z,0.13
2019-01-29T07:38:03.151Z,0.07
2019-01-29T07:39:04.862Z,0.05
2019-01-29T07:40:03.168Z,0.09
2019-01-29T07:41:03.113Z,0.18
2019-01-29T07:42:03.148Z,0.15
2019-01-29T07:43:03.098Z,0.20
2019-01-29T07:44:03.085Z,0.21
2019-01-29T07:45:03.073Z,0.18
2019-01-29T07:46:03.058Z,0.21
2019-01-29T07:47:03.106Z,0.21
2019-01-29T07:48:03.041Z,0.25
2019-01-29T07:49:03.034Z,0.25
2019-01-29T07:50:03.017Z,0.24
2019-01-29T07:51:03.011Z,0.27
2019-01-29T07:52:03.005Z,0.36
2019-01-29T07:53:03.032Z,0.30
2019-01-29T07:54:02.974Z,0.41
2019-01-29T07:55:02.968Z,0.39
2019-01-29T07:56:02.955Z,0.42
2019-01-29T07:57:02.945Z,0.38
2019-01-29T07:58:02.985Z,0.43
2019-01-29T07:59:02.920Z,0.42
2019-01-29T08:00:02.910Z,0.39
2019-01-29T08:01:02.895Z,0.42
2019-01-29T08:02:02.888Z,0.43
2019-01-29T08:03:02.880Z,0.53
2019-01-29T08:04:02.929Z,0.53
2019-01-29T08:05:02.854Z,0.53
2019-01-29T08:06:02.847Z,0.58
2019-01-29T08:07:02.830Z,0.57
2019-01-29T08:08:02.819Z,0.51
2019-01-29T08:09:02.813Z,0.52
2019-01-29T08:10:02.848Z,0.58
2019-01-29T08:11:02.788Z,0.61
2019-01-29T08:12:02.790Z,0.57
2019-01-29T08:13:02.765Z,0.61
2019-01-29T08:14:02.804Z,0.65
2019-01-29T08:15:02.745Z,0.71
2019-01-29T08:16:02.733Z,0.76
2019-01-29T08:17:02.721Z,0.70
2019-01-29T08:18:02.715Z,0.79
2019-01-29T08:19:02.714Z,0.76
2019-01-29T08:20:02.690Z,0.75
2019-01-29T08:21:02.676Z,0.71
2019-01-29T08:22:02.707Z,0.72
2019-01-29T08:23:02.660Z,0.67
2019-01-29T08:24:02.648Z,0.67
2019-01-29T08:25:02.639Z,0.78
2019-01-29T08:26:02.627Z,0.76
2019-01-29T08:27:02.643Z,0.76
2019-01-29T08:28:02.600Z,0.83
2019-01-29T08:29:02.625Z,0.79
2019-01-29T08:30:02.585Z,0.80
2019-01-29T08:31:02.615Z,0.75
2019-01-29T08:32:02.561Z,0.97
2019-01-29T08:33:02.556Z,0.90
2019-01-29T08:34:02.540Z,0.86
2019-01-29T08:35:02.524Z,0.89
2019-01-29T08:36:02.534Z,0.75
2019-01-29T08:37:02.508Z,0.90
2019-01-29T08:38:02.499Z,0.82
2019-01-29T08:39:02.530Z,0.79
2019-01-29T08:40:02.469Z,0.90
2019-01-29T08:41:04.408Z,0.89
2019-01-29T08:42:02.568Z,0.98
2019-01-29T08:43:02.437Z,0.90
2019-01-29T08:44:02.427Z,0.94
2019-01-29T08:45:02.415Z,0.97
2019-01-29T08:46:02.409Z,1.00
2019-01-29T08:47:02.392Z,1.04
2019-01-29T08:48:02.417Z,0.96
2019-01-29T08:49:02.374Z,1.01
2019-01-29T08:50:02.364Z,1.07
2019-01-29T08:51:03.732Z,1.07
2019-01-29T08:52:02.389Z,1.03
2019-01-29T08:53:02.378Z,1.14
2019-01-29T08:54:02.315Z,1.08
2019-01-29T08:55:10.307Z,1.19
2019-01-29T08:56:03.290Z,1.16
2019-01-29T08:57:02.280Z,1.19
2019-01-29T08:58:02.343Z,1.18
2019-01-29T08:59:02.259Z,1.18
2019-01-29T09:00:02.248Z,1.21
2019-01-29T09:01:02.241Z,1.16
2019-01-29T09:02:02.230Z,1.21
2019-01-29T09:03:02.221Z,1.19
2019-01-29T09:04:02.233Z,1.16
2019-01-29T09:05:02.193Z,1.24
2019-01-29T09:06:02.182Z,1.25
2019-01-29T09:07:02.168Z,1.24
2019-01-29T09:08:02.161Z,1.29
2019-01-29T09:09:02.200Z,1.19
2019-01-29T09:10:02.197Z,1.33
2019-01-29T09:11:02.133Z,1.25
2019-01-29T09:12:02.115Z,1.26
2019-01-29T09:13:02.109Z,1.19
2019-01-29T09:14:02.143Z,1.26
2019-01-29T09:15:02.089Z,1.24
2019-01-29T09:16:02.081Z,1.32
2019-01-29T09:17:02.060Z,1.40
2019-01-29T09:18:02.053Z,1.29
2019-01-29T09:19:02.070Z,1.40
2019-01-29T09:20:03.233Z,1.39
2019-01-29T09:21:02.062Z,1.37
2019-01-29T09:22:02.008Z,1.40
2019-01-29T09:23:02.116Z,1.43
2019-01-29T09:24:01.986Z,1.46
2019-01-29T09:25:01.971Z,1.42
2019-01-29T09:26:02.867Z,1.50
2019-01-29T09:27:01.985Z,1.46
2019-01-29T09:28:01.942Z,1.46
2019-01-29T09:29:01.931Z,1.46
2019-01-29T09:30:01.917Z,1.50
2019-01-29T09:31:01.903Z,1.57
2019-01-29T09:32:01.917Z,1.61
2019-01-29T09:33:01.885Z,1.50
2019-01-29T09:34:01.870Z,1.51
2019-01-29T09:35:01.861Z,1.54
2019-01-29T09:36:01.851Z,1.62
2019-01-29T09:37:01.911Z,1.60
2019-01-29T09:38:01.827Z,1.71
2019-01-29T09:39:01.822Z,1.69
2019-01-29T09:40:01.812Z,1.69
2019-01-29T09:41:01.793Z,1.61
2019-01-29T09:42:01.789Z,1.69
2019-01-29T09:43:01.844Z,1.71
2019-01-29T09:44:01.786Z,1.68
2019-01-29T09:45:01.755Z,1.68
2019-01-29T09:46:01.743Z,1.68
2019-01-29T09:47:01.737Z,1.65
2019-01-29T09:48:01.790Z,1.71
2019-01-29T09:49:01.738Z,1.72
2019-01-29T09:50:01.696Z,1.75
2019-01-29T09:51:01.692Z,1.69
2019-01-29T09:52:01.679Z,1.76
2019-01-29T09:53:01.735Z,1.72
2019-01-29T09:54:01.657Z,1.73
2019-01-29T09:55:01.642Z,1.55
2019-01-29T09:56:01.636Z,1.65
2019-01-29T09:57:01.670Z,1.72
2019-01-29T09:58:01.613Z,1.65
2019-01-29T09:59:01.649Z,1.72
2019-01-29T10:00:01.591Z,1.79
2019-01-29T10:01:01.574Z,1.80
2019-01-29T10:02:01.638Z,1.82
2019-01-29T10:03:01.557Z,1.75
2019-01-29T10:04:01.551Z,1.80
2019-01-29T10:05:01.540Z,1.80
2019-01-29T10:06:01.526Z,1.73
2019-01-29T10:07:01.513Z,1.79
2019-01-29T10:08:01.572Z,1.76
2019-01-29T10:09:01.494Z,1.76
2019-01-29T10:10:01.480Z,1.89
2019-01-29T10:11:01.470Z,1.98
2019-01-29T10:12:01.458Z,2.35
2019-01-29T10:13:01.506Z,2.56
2019-01-29T10:14:01.481Z,2.70
2019-01-29T10:15:01.426Z,2.71
2019-01-29T10:16:01.460Z,2.70
2019-01-29T10:17:01.399Z,2.59
2019-01-29T10:18:01.388Z,2.41
2019-01-29T10:19:01.376Z,2.38
2019-01-29T10:20:02.647Z,2.28
2019-01-29T10:21:01.359Z,2.28
2019-01-29T10:22:01.360Z,2.13
2019-01-29T10:23:01.339Z,2.16
2019-01-29T10:24:01.327Z,2.19
2019-01-29T10:25:01.354Z,2.22
2019-01-29T10:26:01.302Z,2.13
2019-01-29T10:27:01.294Z,2.22
2019-01-29T10:28:01.286Z,2.35
2019-01-29T10:29:01.266Z,2.26
2019-01-29T10:30:01.278Z,2.28
2019-01-29T10:31:01.278Z,2.33
2019-01-29T10:32:01.239Z,2.30
2019-01-29T10:33:01.226Z,2.30
2019-01-29T10:34:01.212Z,2.41
2019-01-29T10:35:01.201Z,2.37
2019-01-29T10:36:01.218Z,2.35
2019-01-29T10:37:01.184Z,2.35
2019-01-29T10:38:01.216Z,2.37
2019-01-29T10:39:01.162Z,2.35
2019-01-29T10:40:01.151Z,2.40
2019-01-29T10:41:01.179Z,2.48
2019-01-29T10:42:01.881Z,2.49
2019-01-29T10:43:01.113Z,2.52
2019-01-29T10:44:01.124Z,2.46
2019-01-29T10:45:01.100Z,2.52
2019-01-29T10:46:01.085Z,2.58
2019-01-29T10:47:01.119Z,2.48
2019-01-29T10:48:01.059Z,2.46
2019-01-29T10:49:01.103Z,2.52
2019-01-29T10:50:01.033Z,2.51
2019-01-29T10:51:01.029Z,2.48
2019-01-29T10:52:01.018Z,2.52
2019-01-29T10:53:01.007Z,2.67
2019-01-29T10:54:01.033Z,2.67
2019-01-29T10:55:00.986Z,2.67
2019-01-29T10:56:00.969Z,2.63
2019-01-29T10:57:00.958Z,2.48
2019-01-29T10:58:00.946Z,2.46
2019-01-29T10:59:00.971Z,2.45
2019-01-29T11:00:00.932Z,2.49
2019-01-29T11:01:00.914Z,2.52
2019-01-29T11:02:00.911Z,2.48
2019-01-29T11:03:00.892Z,2.45
2019-01-29T11:04:00.926Z,2.56
2019-01-29T11:05:00.869Z,2.40
2019-01-29T11:06:00.861Z,2.38
2019-01-29T11:07:00.848Z,2.40
2019-01-29T11:08:00.844Z,2.37
2019-01-29T11:09:00.872Z,2.37
2019-01-29T11:10:00.879Z,2.46
2019-01-29T11:11:00.808Z,2.45
2019-01-29T11:12:00.801Z,2.38
2019-01-29T11:13:00.781Z,2.49
2019-01-29T11:14:00.775Z,2.41
2019-01-29T11:15:00.793Z,2.46
2019-01-29T11:16:00.799Z,2.49
2019-01-29T11:17:00.751Z,2.51
2019-01-29T11:18:00.726Z,2.41
2019-01-29T11:19:03.267Z,2.49
2019-01-29T11:20:00.709Z,2.52
2019-01-29T11:21:00.743Z,2.46
2019-01-29T11:22:00.685Z,2.45
2019-01-29T11:23:00.672Z,2.46
2019-01-29T11:24:00.662Z,2.38
2019-01-29T11:25:00.656Z,2.41
2019-01-29T11:26:00.675Z,2.38
2019-01-29T11:27:00.628Z,2.40
2019-01-29T11:28:00.629Z,2.33
2019-01-29T11:29:00.679Z,2.35
2019-01-29T11:30:00.594Z,2.41
2019-01-29T11:31:00.603Z,2.37
2019-01-29T11:32:00.572Z,2.37
2019-01-29T11:33:00.624Z,2.37
2019-01-29T11:34:00.555Z,2.40
2019-01-29T11:35:00.586Z,2.35
2019-01-29T11:36:00.623Z,2.41
2019-01-29T11:37:00.540Z,2.40
2019-01-29T11:38:00.507Z,2.46
2019-01-29T11:39:00.496Z,2.46
2019-01-29T11:40:00.484Z,2.46
2019-01-29T11:41:00.486Z,2.49
2019-01-29T11:42:00.489Z,2.41
2019-01-29T11:43:00.531Z,2.31
2019-01-29T11:44:00.648Z,2.46
2019-01-29T11:45:00.430Z,2.49
2019-01-29T11:46:00.942Z,2.51
2019-01-29T11:47:00.414Z,2.49
2019-01-29T11:48:00.429Z,2.52
2019-01-29T11:49:00.395Z,2.46
2019-01-29T11:50:00.379Z,2.45
2019-01-29T11:51:00.369Z,2.59
2019-01-29T11:52:00.352Z,2.58
2019-01-29T11:53:00.347Z,2.58
2019-01-29T11:54:00.371Z,2.55
2019-01-29T11:55:00.328Z,2.52
2019-01-29T11:56:04.818Z,2.56
2019-01-29T11:57:00.298Z,2.59
2019-01-29T11:58:00.292Z,2.58
2019-01-29T11:59:00.280Z,2.52
2019-01-29T12:00:00.318Z,2.49
2019-01-29T12:01:00.253Z,2.64
2019-01-29T12:02:00.246Z,2.66
2019-01-29T12:03:00.324Z,2.73
2019-01-29T12:04:00.256Z,2.69
2019-01-29T12:05:00.212Z,2.56
2019-01-29T12:06:00.197Z,2.61
2019-01-29T12:07:00.210Z,2.69
2019-01-29T12:08:00.184Z,2.69
2019-01-29T12:09:00.185Z,2.74
2019-01-29T12:10:00.334Z,2.70
2019-01-29T12:11:00.148Z,2.66
2019-01-29T12:12:00.135Z,2.70
2019-01-29T12:13:00.124Z,2.74
2019-01-29T12:14:00.163Z,2.70
2019-01-29T12:15:00.169Z,2.81
2019-01-29T12:16:00.092Z,2.74
2019-01-29T12:17:00.076Z,2.85
2019-01-29T12:18:00.072Z,2.84
2019-01-29T12:19:00.126Z,2.81
2019-01-29T12:20:00.049Z,2.84
2019-01-29T12:21:00.032Z,2.77
2019-01-29T12:22:00.027Z,2.85
2019-01-29T12:23:00.016Z,2.82
2019-01-29T12:24:00.000Z,2.91
2019-01-29T12:25:00.088Z,2.98
2019-01-29T12:25:59.977Z,2.95
2019-01-29T12:26:59.964Z,2.95
2019-01-29T12:27:59.956Z,3.05
2019-01-29T12:28:59.948Z,2.95
2019-01-29T12:29:59.939Z,2.95
2019-01-29T12:30:59.993Z,2.95
2019-01-29T12:31:59.920Z,2.98
2019-01-29T12:32:59.917Z,2.95
2019-01-29T12:33:59.892Z,3.06
2019-01-29T12:34:59.878Z,3.06
2019-01-29T12:35:59.875Z,3.02
2019-01-29T12:36:59.930Z,3.03
2019-01-29T12:37:59.895Z,3.02
2019-01-29T12:38:59.833Z,3.03
2019-01-29T12:39:59.823Z,3.00
2019-01-29T12:40:59.816Z,3.02
2019-01-29T12:41:59.878Z,3.07
2019-01-29T12:42:59.796Z,3.06
2019-01-29T12:43:59.777Z,3.09
2019-01-29T12:44:59.766Z,3.10
2019-01-29T12:45:59.756Z,3.09
2019-01-29T12:46:59.744Z,3.10
2019-01-29T12:47:59.807Z,3.21
2019-01-29T12:48:59.734Z,3.30
2019-01-29T12:49:59.717Z,3.27
2019-01-29T12:50:59.705Z,3.33
2019-01-29T12:51:59.690Z,3.31
2019-01-29T12:52:59.679Z,3.28
2019-01-29T12:53:59.719Z,3.23
2019-01-29T12:54:59.757Z,3.43
2019-01-29T12:55:59.655Z,3.46
2019-01-29T12:56:59.643Z,3.67
2019-01-29T12:57:59.623Z,3.64
2019-01-29T12:58:59.663Z,3.50
2019-01-29T12:59:59.608Z,3.44
2019-01-29T13:00:59.592Z,3.49
2019-01-29T13:01:59.581Z,3.60
2019-01-29T13:02:59.571Z,4.01
2019-01-29T13:03:59.565Z,4.55
2019-01-29T13:04:59.621Z,4.86
2019-01-29T13:05:59.537Z,5.32
2019-01-29T13:06:59.526Z,5.57
2019-01-29T13:07:59.516Z,5.52
2019-01-29T13:08:59.513Z,5.59
2019-01-29T13:09:59.525Z,5.56
2019-01-29T13:10:59.502Z,5.49
2019-01-29T13:11:59.479Z,5.67
2019-01-29T13:12:59.461Z,5.64
2019-01-29T13:13:59.482Z,5.85
2019-01-29T13:14:59.503Z,5.63